sensor_id;sensor_type;location;lat;lon;timestamp;temperature;humidity
25410;DHT22;13339;50.840;4.346;2024-03-25T00:00:18;9.80;99.90
25410;DHT22;13339;50.840;4.346;2024-03-25T00:02:46;9.70;99.90
25410;DHT22;13339;50.840;4.346;2024-03-25T00:05:11;9.70;99.90
25410;DHT22;13339;50.840;4.346;2024-03-25T00:07:40;9.80;99.90
25410;DHT22;13339;50.840;4.346;2024-03-25T00:10:06;9.80;99.90
25410;DHT22;13339;50.840;4.346;2024-03-25T00:12:34;9.80;99.90
25410;DHT22;13339;50.840;4.346;2024-03-25T00:14:59;9.80;99.90
25410;DHT22;13339;50.840;4.346;2024-03-25T00:17:25;9.70;99.90
25410;DHT22;13339;50.840;4.346;2024-03-25T00:19:51;9.60;99.90
25410;DHT22;13339;50.840;4.346;2024-03-25T00:22:18;9.30;99.90
25410;DHT22;13339;50.840;4.346;2024-03-25T00:24:48;9.30;99.90
25410;DHT22;13339;50.840;4.346;2024-03-25T00:27:14;9.30;99.90
25410;DHT22;13339;50.840;4.346;2024-03-25T00:29:40;9.30;99.90
25410;DHT22;13339;50.840;4.346;2024-03-25T00:32:07;9.30;99.90
25410;DHT22;13339;50.840;4.346;2024-03-25T00:34:33;9.30;99.90
25410;DHT22;13339;50.840;4.346;2024-03-25T00:36:59;9.20;99.90
25410;DHT22;13339;50.840;4.346;2024-03-25T00:39:26;9.30;99.90
25410;DHT22;13339;50.840;4.346;2024-03-25T00:41:52;9.10;99.90
25410;DHT22;13339;50.840;4.346;2024-03-25T00:44:18;9.10;99.90
25410;DHT22;13339;50.840;4.346;2024-03-25T00:46:44;9.10;99.90
25410;DHT22;13339;50.840;4.346;2024-03-25T00:49:10;9.10;99.90
25410;DHT22;13339;50.840;4.346;2024-03-25T00:51:36;9.20;99.90
25410;DHT22;13339;50.840;4.346;2024-03-25T00:54:02;9.30;99.90
25410;DHT22;13339;50.840;4.346;2024-03-25T00:56:29;9.30;99.90
25410;DHT22;13339;50.840;4.346;2024-03-25T00:58:54;9.40;99.90
25410;DHT22;13339;50.840;4.346;2024-03-25T01:01:22;9.40;99.90
25410;DHT22;13339;50.840;4.346;2024-03-25T01:03:48;9.50;99.90
25410;DHT22;13339;50.840;4.346;2024-03-25T01:06:14;9.40;99.90
25410;DHT22;13339;50.840;4.346;2024-03-25T01:08:39;9.40;99.90
25410;DHT22;13339;50.840;4.346;2024-03-25T01:11:05;9.50;99.90
25410;DHT22;13339;50.840;4.346;2024-03-25T01:13:31;9.40;99.90
25410;DHT22;13339;50.840;4.346;2024-03-25T01:15:57;9.30;99.90
25410;DHT22;13339;50.840;4.346;2024-03-25T01:18:22;9.30;99.90
25410;DHT22;13339;50.840;4.346;2024-03-25T01:20:48;9.10;99.90
25410;DHT22;13339;50.840;4.346;2024-03-25T01:23:15;9.30;99.90
25410;DHT22;13339;50.840;4.346;2024-03-25T01:25:41;9.40;99.90
25410;DHT22;13339;50.840;4.346;2024-03-25T01:28:06;9.30;99.90
25410;DHT22;13339;50.840;4.346;2024-03-25T01:30:32;9.10;99.90
25410;DHT22;13339;50.840;4.346;2024-03-25T01:33:01;9.00;99.90
25410;DHT22;13339;50.840;4.346;2024-03-25T01:35:26;9.00;99.90
25410;DHT22;13339;50.840;4.346;2024-03-25T01:37:52;9.00;99.90
25410;DHT22;13339;50.840;4.346;2024-03-25T01:40:18;9.00;99.90
25410;DHT22;13339;50.840;4.346;2024-03-25T01:42:54;9.00;99.90
25410;DHT22;13339;50.840;4.346;2024-03-25T01:45:20;9.10;99.90
25410;DHT22;13339;50.840;4.346;2024-03-25T01:47:45;9.00;99.90
25410;DHT22;13339;50.840;4.346;2024-03-25T01:50:11;9.10;99.90
25410;DHT22;13339;50.840;4.346;2024-03-25T01:52:38;9.20;99.90
25410;DHT22;13339;50.840;4.346;2024-03-25T01:55:05;9.10;99.90
25410;DHT22;13339;50.840;4.346;2024-03-25T01:57:32;9.20;99.90
25410;DHT22;13339;50.840;4.346;2024-03-25T01:59:59;9.20;99.90
25410;DHT22;13339;50.840;4.346;2024-03-25T02:02:24;9.00;99.90
25410;DHT22;13339;50.840;4.346;2024-03-25T02:04:50;9.10;99.90
25410;DHT22;13339;50.840;4.346;2024-03-25T02:07:16;8.70;99.90
25410;DHT22;13339;50.840;4.346;2024-03-25T02:09:42;8.70;99.90
25410;DHT22;13339;50.840;4.346;2024-03-25T02:12:09;8.70;99.90
25410;DHT22;13339;50.840;4.346;2024-03-25T02:14:35;8.90;99.90
25410;DHT22;13339;50.840;4.346;2024-03-25T02:17:01;9.00;99.90
25410;DHT22;13339;50.840;4.346;2024-03-25T02:19:28;8.90;99.90
25410;DHT22;13339;50.840;4.346;2024-03-25T02:21:55;8.90;99.90
25410;DHT22;13339;50.840;4.346;2024-03-25T02:24:22;9.10;99.90
25410;DHT22;13339;50.840;4.346;2024-03-25T02:26:49;9.00;99.90
25410;DHT22;13339;50.840;4.346;2024-03-25T02:29:14;9.00;99.90
25410;DHT22;13339;50.840;4.346;2024-03-25T02:31:40;9.00;99.90
25410;DHT22;13339;50.840;4.346;2024-03-25T02:34:05;8.90;99.90
25410;DHT22;13339;50.840;4.346;2024-03-25T02:36:31;8.90;99.90
25410;DHT22;13339;50.840;4.346;2024-03-25T02:38:59;9.10;99.90
25410;DHT22;13339;50.840;4.346;2024-03-25T02:41:24;8.90;99.90
25410;DHT22;13339;50.840;4.346;2024-03-25T02:43:52;8.90;99.90
25410;DHT22;13339;50.840;4.346;2024-03-25T02:46:18;8.70;99.90
25410;DHT22;13339;50.840;4.346;2024-03-25T02:48:46;8.70;99.90
25410;DHT22;13339;50.840;4.346;2024-03-25T02:51:11;8.80;99.90
25410;DHT22;13339;50.840;4.346;2024-03-25T02:53:37;8.90;99.90
25410;DHT22;13339;50.840;4.346;2024-03-25T02:56:02;9.10;99.90
25410;DHT22;13339;50.840;4.346;2024-03-25T02:58:28;9.00;99.90
25410;DHT22;13339;50.840;4.346;2024-03-25T03:00:54;9.00;99.90
25410;DHT22;13339;50.840;4.346;2024-03-25T03:03:19;9.00;99.90
25410;DHT22;13339;50.840;4.346;2024-03-25T03:05:45;8.90;99.90
25410;DHT22;13339;50.840;4.346;2024-03-25T03:08:10;9.00;99.90
25410;DHT22;13339;50.840;4.346;2024-03-25T03:10:36;9.00;99.90
25410;DHT22;13339;50.840;4.346;2024-03-25T03:13:02;9.10;99.90
25410;DHT22;13339;50.840;4.346;2024-03-25T03:15:27;9.10;99.90
25410;DHT22;13339;50.840;4.346;2024-03-25T03:17:53;9.20;99.90
25410;DHT22;13339;50.840;4.346;2024-03-25T03:20:18;9.10;99.90
25410;DHT22;13339;50.840;4.346;2024-03-25T03:22:44;9.20;99.90
25410;DHT22;13339;50.840;4.346;2024-03-25T03:25:10;9.10;99.90
25410;DHT22;13339;50.840;4.346;2024-03-25T03:27:35;9.20;99.90
25410;DHT22;13339;50.840;4.346;2024-03-25T03:30:01;9.20;99.90
25410;DHT22;13339;50.840;4.346;2024-03-25T03:32:27;9.30;99.90
25410;DHT22;13339;50.840;4.346;2024-03-25T03:34:52;9.40;99.90
25410;DHT22;13339;50.840;4.346;2024-03-25T03:37:18;9.50;99.90
25410;DHT22;13339;50.840;4.346;2024-03-25T03:39:43;9.50;99.90
25410;DHT22;13339;50.840;4.346;2024-03-25T03:42:09;9.50;99.90
25410;DHT22;13339;50.840;4.346;2024-03-25T03:44:34;9.50;99.90
25410;DHT22;13339;50.840;4.346;2024-03-25T03:47:00;9.50;99.90
25410;DHT22;13339;50.840;4.346;2024-03-25T03:49:26;9.50;99.90
25410;DHT22;13339;50.840;4.346;2024-03-25T03:51:51;9.50;99.90
25410;DHT22;13339;50.840;4.346;2024-03-25T03:54:17;9.50;99.90
25410;DHT22;13339;50.840;4.346;2024-03-25T03:56:42;9.60;99.90
25410;DHT22;13339;50.840;4.346;2024-03-25T03:59:08;9.60;99.90
25410;DHT22;13339;50.840;4.346;2024-03-25T04:01:34;9.70;99.90
25410;DHT22;13339;50.840;4.346;2024-03-25T04:03:59;9.60;99.90
25410;DHT22;13339;50.840;4.346;2024-03-25T04:06:25;9.60;99.90
25410;DHT22;13339;50.840;4.346;2024-03-25T04:08:50;9.70;99.90
25410;DHT22;13339;50.840;4.346;2024-03-25T04:11:17;9.60;99.90
25410;DHT22;13339;50.840;4.346;2024-03-25T04:13:43;9.60;99.90
25410;DHT22;13339;50.840;4.346;2024-03-25T04:16:09;9.50;99.90
25410;DHT22;13339;50.840;4.346;2024-03-25T04:18:35;9.40;99.90
25410;DHT22;13339;50.840;4.346;2024-03-25T04:21:00;9.50;99.90
25410;DHT22;13339;50.840;4.346;2024-03-25T04:23:26;9.40;99.90
25410;DHT22;13339;50.840;4.346;2024-03-25T04:25:52;9.40;99.90
25410;DHT22;13339;50.840;4.346;2024-03-25T04:28:20;9.40;99.90
25410;DHT22;13339;50.840;4.346;2024-03-25T04:30:53;9.50;99.90
25410;DHT22;13339;50.840;4.346;2024-03-25T04:33:19;9.60;99.90
25410;DHT22;13339;50.840;4.346;2024-03-25T04:35:45;9.60;99.90
25410;DHT22;13339;50.840;4.346;2024-03-25T04:38:11;9.60;99.90
25410;DHT22;13339;50.840;4.346;2024-03-25T04:40:37;9.50;99.90
25410;DHT22;13339;50.840;4.346;2024-03-25T04:43:02;9.50;99.90
25410;DHT22;13339;50.840;4.346;2024-03-25T04:45:28;9.50;99.90
25410;DHT22;13339;50.840;4.346;2024-03-25T04:47:53;9.30;99.90
25410;DHT22;13339;50.840;4.346;2024-03-25T04:50:19;9.30;99.90
25410;DHT22;13339;50.840;4.346;2024-03-25T04:52:45;9.40;99.90
25410;DHT22;13339;50.840;4.346;2024-03-25T04:55:10;9.50;99.90
25410;DHT22;13339;50.840;4.346;2024-03-25T04:57:36;9.40;99.90
25410;DHT22;13339;50.840;4.346;2024-03-25T05:00:02;9.50;99.90
25410;DHT22;13339;50.840;4.346;2024-03-25T05:02:27;9.40;99.90
25410;DHT22;13339;50.840;4.346;2024-03-25T05:04:53;9.40;99.90
25410;DHT22;13339;50.840;4.346;2024-03-25T05:07:19;9.40;99.90
25410;DHT22;13339;50.840;4.346;2024-03-25T05:09:45;9.50;99.90
25410;DHT22;13339;50.840;4.346;2024-03-25T05:12:10;9.50;99.90
25410;DHT22;13339;50.840;4.346;2024-03-25T05:14:36;9.40;99.90
25410;DHT22;13339;50.840;4.346;2024-03-25T05:17:02;9.50;99.90
25410;DHT22;13339;50.840;4.346;2024-03-25T05:19:29;9.50;99.90
25410;DHT22;13339;50.840;4.346;2024-03-25T05:21:55;9.40;99.90
25410;DHT22;13339;50.840;4.346;2024-03-25T05:24:20;9.40;99.90
25410;DHT22;13339;50.840;4.346;2024-03-25T05:26:46;9.50;99.90
25410;DHT22;13339;50.840;4.346;2024-03-25T05:29:12;9.50;99.90
25410;DHT22;13339;50.840;4.346;2024-03-25T05:31:38;9.50;99.90
25410;DHT22;13339;50.840;4.346;2024-03-25T05:34:04;9.40;99.90
25410;DHT22;13339;50.840;4.346;2024-03-25T05:36:34;9.40;99.90
25410;DHT22;13339;50.840;4.346;2024-03-25T05:38:59;9.40;99.90
25410;DHT22;13339;50.840;4.346;2024-03-25T05:41:25;9.30;99.90
25410;DHT22;13339;50.840;4.346;2024-03-25T05:43:50;9.20;99.90
25410;DHT22;13339;50.840;4.346;2024-03-25T05:46:16;9.10;99.90
25410;DHT22;13339;50.840;4.346;2024-03-25T05:48:42;9.00;99.90
25410;DHT22;13339;50.840;4.346;2024-03-25T05:51:08;9.10;99.90
25410;DHT22;13339;50.840;4.346;2024-03-25T05:53:34;9.20;99.90
25410;DHT22;13339;50.840;4.346;2024-03-25T05:56:00;9.40;99.90
25410;DHT22;13339;50.840;4.346;2024-03-25T05:58:26;9.60;99.90
25410;DHT22;13339;50.840;4.346;2024-03-25T06:00:52;9.60;99.90
25410;DHT22;13339;50.840;4.346;2024-03-25T06:03:21;9.60;99.90
25410;DHT22;13339;50.840;4.346;2024-03-25T06:05:47;9.60;99.90
25410;DHT22;13339;50.840;4.346;2024-03-25T06:08:13;9.60;99.90
25410;DHT22;13339;50.840;4.346;2024-03-25T06:10:46;9.80;99.90
25410;DHT22;13339;50.840;4.346;2024-03-25T06:13:11;9.80;99.90
25410;DHT22;13339;50.840;4.346;2024-03-25T06:15:37;9.90;99.90
25410;DHT22;13339;50.840;4.346;2024-03-25T06:18:03;9.80;99.90
25410;DHT22;13339;50.840;4.346;2024-03-25T06:20:29;9.90;99.90
25410;DHT22;13339;50.840;4.346;2024-03-25T06:22:54;9.90;99.90
25410;DHT22;13339;50.840;4.346;2024-03-25T06:25:20;9.90;99.90
25410;DHT22;13339;50.840;4.346;2024-03-25T06:27:45;10.00;99.90
25410;DHT22;13339;50.840;4.346;2024-03-25T06:30:11;9.90;99.90
25410;DHT22;13339;50.840;4.346;2024-03-25T06:32:56;10.00;99.90
25410;DHT22;13339;50.840;4.346;2024-03-25T06:35:42;10.00;99.90
25410;DHT22;13339;50.840;4.346;2024-03-25T06:38:09;9.90;99.90
25410;DHT22;13339;50.840;4.346;2024-03-25T06:40:35;10.00;99.90
25410;DHT22;13339;50.840;4.346;2024-03-25T06:43:00;10.10;99.90
25410;DHT22;13339;50.840;4.346;2024-03-25T06:45:26;10.20;99.90
25410;DHT22;13339;50.840;4.346;2024-03-25T06:47:51;10.30;99.90
25410;DHT22;13339;50.840;4.346;2024-03-25T06:50:17;10.40;99.90
25410;DHT22;13339;50.840;4.346;2024-03-25T06:52:43;10.50;99.90
25410;DHT22;13339;50.840;4.346;2024-03-25T06:55:08;10.50;99.90
25410;DHT22;13339;50.840;4.346;2024-03-25T06:57:34;10.50;99.90
25410;DHT22;13339;50.840;4.346;2024-03-25T06:59:59;10.70;99.90
25410;DHT22;13339;50.840;4.346;2024-03-25T07:02:25;10.70;99.90
25410;DHT22;13339;50.840;4.346;2024-03-25T07:04:51;10.50;99.90
25410;DHT22;13339;50.840;4.346;2024-03-25T07:07:16;10.50;99.90
25410;DHT22;13339;50.840;4.346;2024-03-25T07:09:42;10.70;99.90
25410;DHT22;13339;50.840;4.346;2024-03-25T07:12:08;10.70;99.90
25410;DHT22;13339;50.840;4.346;2024-03-25T07:14:33;10.70;99.90
25410;DHT22;13339;50.840;4.346;2024-03-25T07:16:59;10.90;99.90
25410;DHT22;13339;50.840;4.346;2024-03-25T07:19:25;10.80;99.90
25410;DHT22;13339;50.840;4.346;2024-03-25T07:21:51;10.80;99.90
25410;DHT22;13339;50.840;4.346;2024-03-25T07:24:16;10.80;99.90
25410;DHT22;13339;50.840;4.346;2024-03-25T07:26:42;11.00;99.90
25410;DHT22;13339;50.840;4.346;2024-03-25T07:29:07;11.10;99.90
25410;DHT22;13339;50.840;4.346;2024-03-25T07:31:33;11.10;99.90
25410;DHT22;13339;50.840;4.346;2024-03-25T07:33:59;11.20;99.90
25410;DHT22;13339;50.840;4.346;2024-03-25T07:36:25;11.30;99.90
25410;DHT22;13339;50.840;4.346;2024-03-25T07:38:50;11.20;99.90
25410;DHT22;13339;50.840;4.346;2024-03-25T07:41:16;11.20;99.90
25410;DHT22;13339;50.840;4.346;2024-03-25T07:43:42;11.20;99.90
25410;DHT22;13339;50.840;4.346;2024-03-25T07:46:08;11.30;99.90
25410;DHT22;13339;50.840;4.346;2024-03-25T07:48:33;11.40;99.90
25410;DHT22;13339;50.840;4.346;2024-03-25T07:51:01;11.40;99.90
25410;DHT22;13339;50.840;4.346;2024-03-25T07:53:26;11.60;99.90
25410;DHT22;13339;50.840;4.346;2024-03-25T07:55:52;11.60;99.90
25410;DHT22;13339;50.840;4.346;2024-03-25T07:58:17;11.60;99.90
25410;DHT22;13339;50.840;4.346;2024-03-25T08:00:43;11.50;99.90
25410;DHT22;13339;50.840;4.346;2024-03-25T08:03:09;11.40;99.90
25410;DHT22;13339;50.840;4.346;2024-03-25T08:05:34;11.50;99.90
25410;DHT22;13339;50.840;4.346;2024-03-25T08:08:00;11.60;99.90
25410;DHT22;13339;50.840;4.346;2024-03-25T08:10:26;11.70;99.90
25410;DHT22;13339;50.840;4.346;2024-03-25T08:12:51;11.90;99.90
25410;DHT22;13339;50.840;4.346;2024-03-25T08:15:17;12.00;99.90
25410;DHT22;13339;50.840;4.346;2024-03-25T08:17:42;12.30;99.90
25410;DHT22;13339;50.840;4.346;2024-03-25T08:20:08;12.50;99.90
25410;DHT22;13339;50.840;4.346;2024-03-25T08:22:34;12.70;99.90
25410;DHT22;13339;50.840;4.346;2024-03-25T08:25:00;12.90;99.90
25410;DHT22;13339;50.840;4.346;2024-03-25T08:27:26;12.70;99.90
25410;DHT22;13339;50.840;4.346;2024-03-25T08:29:52;12.70;99.90
25410;DHT22;13339;50.840;4.346;2024-03-25T08:32:19;12.70;99.90
25410;DHT22;13339;50.840;4.346;2024-03-25T08:34:45;12.80;99.90
25410;DHT22;13339;50.840;4.346;2024-03-25T08:37:11;12.70;99.90
25410;DHT22;13339;50.840;4.346;2024-03-25T08:39:36;12.70;99.90
25410;DHT22;13339;50.840;4.346;2024-03-25T08:42:02;12.50;99.90
25410;DHT22;13339;50.840;4.346;2024-03-25T08:44:28;12.60;99.90
25410;DHT22;13339;50.840;4.346;2024-03-25T08:46:54;12.60;99.90
25410;DHT22;13339;50.840;4.346;2024-03-25T08:49:20;12.60;99.90
25410;DHT22;13339;50.840;4.346;2024-03-25T08:51:45;12.60;99.90
25410;DHT22;13339;50.840;4.346;2024-03-25T08:54:11;12.70;99.90
25410;DHT22;13339;50.840;4.346;2024-03-25T08:56:37;12.60;99.90
25410;DHT22;13339;50.840;4.346;2024-03-25T08:59:02;12.50;99.90
25410;DHT22;13339;50.840;4.346;2024-03-25T09:01:28;12.40;99.90
25410;DHT22;13339;50.840;4.346;2024-03-25T09:03:56;12.50;99.90
25410;DHT22;13339;50.840;4.346;2024-03-25T09:06:21;12.60;99.90
25410;DHT22;13339;50.840;4.346;2024-03-25T09:08:47;12.70;99.90
25410;DHT22;13339;50.840;4.346;2024-03-25T09:11:31;12.70;99.90
25410;DHT22;13339;50.840;4.346;2024-03-25T09:13:57;12.50;99.90
25410;DHT22;13339;50.840;4.346;2024-03-25T09:16:23;12.60;99.90
25410;DHT22;13339;50.840;4.346;2024-03-25T09:18:48;12.60;99.90
25410;DHT22;13339;50.840;4.346;2024-03-25T09:21:14;12.50;99.90
25410;DHT22;13339;50.840;4.346;2024-03-25T09:23:39;12.40;99.90
25410;DHT22;13339;50.840;4.346;2024-03-25T09:26:05;12.40;99.90
25410;DHT22;13339;50.840;4.346;2024-03-25T09:28:31;12.60;99.90
25410;DHT22;13339;50.840;4.346;2024-03-25T09:30:56;12.60;99.90
25410;DHT22;13339;50.840;4.346;2024-03-25T09:33:22;12.80;99.90
25410;DHT22;13339;50.840;4.346;2024-03-25T09:35:47;12.80;99.90
25410;DHT22;13339;50.840;4.346;2024-03-25T09:38:13;12.50;99.90
25410;DHT22;13339;50.840;4.346;2024-03-25T09:40:42;12.70;99.90
25410;DHT22;13339;50.840;4.346;2024-03-25T09:43:23;12.70;99.90
25410;DHT22;13339;50.840;4.346;2024-03-25T09:45:49;12.60;99.90
25410;DHT22;13339;50.840;4.346;2024-03-25T09:48:18;12.60;99.90
25410;DHT22;13339;50.840;4.346;2024-03-25T09:50:45;12.60;99.90
25410;DHT22;13339;50.840;4.346;2024-03-25T09:53:11;12.80;99.90
25410;DHT22;13339;50.840;4.346;2024-03-25T09:55:36;13.00;99.90
25410;DHT22;13339;50.840;4.346;2024-03-25T09:58:04;13.20;99.90
25410;DHT22;13339;50.840;4.346;2024-03-25T10:00:30;13.30;99.90
25410;DHT22;13339;50.840;4.346;2024-03-25T10:02:56;13.50;99.90
25410;DHT22;13339;50.840;4.346;2024-03-25T10:05:21;13.60;99.90
25410;DHT22;13339;50.840;4.346;2024-03-25T10:07:47;13.70;99.90
25410;DHT22;13339;50.840;4.346;2024-03-25T10:10:13;13.90;99.90
25410;DHT22;13339;50.840;4.346;2024-03-25T10:12:39;14.00;99.90
25410;DHT22;13339;50.840;4.346;2024-03-25T10:15:06;14.20;99.90
25410;DHT22;13339;50.840;4.346;2024-03-25T10:17:32;14.30;99.90
25410;DHT22;13339;50.840;4.346;2024-03-25T10:19:58;14.50;99.90
25410;DHT22;13339;50.840;4.346;2024-03-25T10:22:24;14.50;99.90
25410;DHT22;13339;50.840;4.346;2024-03-25T10:24:49;14.70;99.90
25410;DHT22;13339;50.840;4.346;2024-03-25T10:27:23;14.60;99.90
25410;DHT22;13339;50.840;4.346;2024-03-25T10:29:53;14.70;99.90
25410;DHT22;13339;50.840;4.346;2024-03-25T10:32:19;14.90;99.90
25410;DHT22;13339;50.840;4.346;2024-03-25T10:34:45;14.90;99.90
25410;DHT22;13339;50.840;4.346;2024-03-25T10:37:12;14.90;99.90
25410;DHT22;13339;50.840;4.346;2024-03-25T10:39:42;14.60;99.90
25410;DHT22;13339;50.840;4.346;2024-03-25T10:42:10;14.50;99.90
25410;DHT22;13339;50.840;4.346;2024-03-25T10:44:38;14.60;99.90
25410;DHT22;13339;50.840;4.346;2024-03-25T10:47:05;14.70;99.90
25410;DHT22;13339;50.840;4.346;2024-03-25T10:49:50;14.60;99.90
25410;DHT22;13339;50.840;4.346;2024-03-25T10:52:17;14.70;99.90
25410;DHT22;13339;50.840;4.346;2024-03-25T10:54:46;14.70;99.90
25410;DHT22;13339;50.840;4.346;2024-03-25T10:57:13;14.70;99.90
25410;DHT22;13339;50.840;4.346;2024-03-25T10:59:40;14.70;99.90
25410;DHT22;13339;50.840;4.346;2024-03-25T11:02:08;14.90;99.90
25410;DHT22;13339;50.840;4.346;2024-03-25T11:04:34;15.10;99.90
25410;DHT22;13339;50.840;4.346;2024-03-25T11:07:14;15.10;99.90
25410;DHT22;13339;50.840;4.346;2024-03-25T11:09:40;15.30;99.90
25410;DHT22;13339;50.840;4.346;2024-03-25T11:12:10;15.30;99.90
25410;DHT22;13339;50.840;4.346;2024-03-25T11:14:36;15.00;99.90
25410;DHT22;13339;50.840;4.346;2024-03-25T11:17:02;14.90;99.90
25410;DHT22;13339;50.840;4.346;2024-03-25T11:19:31;14.90;99.90
25410;DHT22;13339;50.840;4.346;2024-03-25T11:22:07;15.20;99.90
25410;DHT22;13339;50.840;4.346;2024-03-25T11:24:34;15.50;99.90
25410;DHT22;13339;50.840;4.346;2024-03-25T11:27:07;15.70;99.90
25410;DHT22;13339;50.840;4.346;2024-03-25T11:29:33;15.80;99.90
25410;DHT22;13339;50.840;4.346;2024-03-25T11:32:03;15.80;99.90
25410;DHT22;13339;50.840;4.346;2024-03-25T11:34:29;15.60;99.90
25410;DHT22;13339;50.840;4.346;2024-03-25T11:36:55;15.60;99.90
25410;DHT22;13339;50.840;4.346;2024-03-25T11:39:21;15.70;99.90
25410;DHT22;13339;50.840;4.346;2024-03-25T11:41:47;15.90;99.90
25410;DHT22;13339;50.840;4.346;2024-03-25T11:44:13;16.10;99.90
25410;DHT22;13339;50.840;4.346;2024-03-25T11:46:41;16.20;99.90
25410;DHT22;13339;50.840;4.346;2024-03-25T11:49:09;16.40;99.90
25410;DHT22;13339;50.840;4.346;2024-03-25T11:51:35;16.40;99.90
25410;DHT22;13339;50.840;4.346;2024-03-25T11:54:04;16.40;99.90
25410;DHT22;13339;50.840;4.346;2024-03-25T11:56:31;16.60;99.90
25410;DHT22;13339;50.840;4.346;2024-03-25T11:58:58;16.60;99.90
25410;DHT22;13339;50.840;4.346;2024-03-25T12:01:24;16.70;99.90
25410;DHT22;13339;50.840;4.346;2024-03-25T12:03:51;16.60;99.90
25410;DHT22;13339;50.840;4.346;2024-03-25T12:06:16;16.50;99.90
25410;DHT22;13339;50.840;4.346;2024-03-25T12:08:42;16.30;99.90
25410;DHT22;13339;50.840;4.346;2024-03-25T12:11:28;16.30;99.90
25410;DHT22;13339;50.840;4.346;2024-03-25T12:13:53;16.40;99.90
25410;DHT22;13339;50.840;4.346;2024-03-25T12:16:20;16.30;99.90
25410;DHT22;13339;50.840;4.346;2024-03-25T12:18:46;16.20;99.90
25410;DHT22;13339;50.840;4.346;2024-03-25T12:21:14;16.30;99.90
25410;DHT22;13339;50.840;4.346;2024-03-25T12:23:42;16.40;99.90
25410;DHT22;13339;50.840;4.346;2024-03-25T12:26:08;16.20;99.90
25410;DHT22;13339;50.840;4.346;2024-03-25T12:28:34;16.30;99.90
25410;DHT22;13339;50.840;4.346;2024-03-25T12:31:07;16.20;99.90
25410;DHT22;13339;50.840;4.346;2024-03-25T12:33:48;16.10;99.90
25410;DHT22;13339;50.840;4.346;2024-03-25T12:36:13;16.20;99.90
25410;DHT22;13339;50.840;4.346;2024-03-25T12:38:39;16.10;99.90
25410;DHT22;13339;50.840;4.346;2024-03-25T12:41:06;16.20;99.90
25410;DHT22;13339;50.840;4.346;2024-03-25T12:43:34;15.80;99.90
25410;DHT22;13339;50.840;4.346;2024-03-25T12:46:00;15.70;99.90
25410;DHT22;13339;50.840;4.346;2024-03-25T12:48:26;15.90;99.90
25410;DHT22;13339;50.840;4.346;2024-03-25T12:50:52;15.80;99.90
25410;DHT22;13339;50.840;4.346;2024-03-25T12:53:21;15.80;99.90
25410;DHT22;13339;50.840;4.346;2024-03-25T12:55:47;15.70;99.90
25410;DHT22;13339;50.840;4.346;2024-03-25T12:58:13;15.80;99.90
25410;DHT22;13339;50.840;4.346;2024-03-25T13:00:38;15.80;99.90
25410;DHT22;13339;50.840;4.346;2024-03-25T13:03:06;15.70;99.90
25410;DHT22;13339;50.840;4.346;2024-03-25T13:05:33;15.60;99.90
25410;DHT22;13339;50.840;4.346;2024-03-25T13:07:59;15.60;99.90
25410;DHT22;13339;50.840;4.346;2024-03-25T13:10:25;15.50;99.90
25410;DHT22;13339;50.840;4.346;2024-03-25T13:12:51;15.60;99.90
25410;DHT22;13339;50.840;4.346;2024-03-25T13:15:17;15.70;99.90
25410;DHT22;13339;50.840;4.346;2024-03-25T13:17:42;15.70;99.90
25410;DHT22;13339;50.840;4.346;2024-03-25T13:20:08;15.70;99.90
25410;DHT22;13339;50.840;4.346;2024-03-25T13:22:35;15.80;99.90
25410;DHT22;13339;50.840;4.346;2024-03-25T13:25:00;15.70;99.90
25410;DHT22;13339;50.840;4.346;2024-03-25T13:27:26;15.60;99.90
25410;DHT22;13339;50.840;4.346;2024-03-25T13:29:52;15.40;99.90
25410;DHT22;13339;50.840;4.346;2024-03-25T13:32:22;15.30;99.90
25410;DHT22;13339;50.840;4.346;2024-03-25T13:34:48;15.40;99.90
25410;DHT22;13339;50.840;4.346;2024-03-25T13:37:14;15.50;99.90
25410;DHT22;13339;50.840;4.346;2024-03-25T13:39:39;15.40;99.90
25410;DHT22;13339;50.840;4.346;2024-03-25T13:42:05;15.50;99.90
25410;DHT22;13339;50.840;4.346;2024-03-25T13:44:30;15.40;99.90
25410;DHT22;13339;50.840;4.346;2024-03-25T13:46:56;15.40;99.90
25410;DHT22;13339;50.840;4.346;2024-03-25T13:49:22;15.60;99.90
25410;DHT22;13339;50.840;4.346;2024-03-25T13:51:51;15.50;99.90
25410;DHT22;13339;50.840;4.346;2024-03-25T13:54:21;15.50;99.90
25410;DHT22;13339;50.840;4.346;2024-03-25T13:56:47;15.50;99.90
25410;DHT22;13339;50.840;4.346;2024-03-25T13:59:13;15.50;99.90
25410;DHT22;13339;50.840;4.346;2024-03-25T14:01:40;15.50;99.90
25410;DHT22;13339;50.840;4.346;2024-03-25T14:04:06;15.60;99.90
25410;DHT22;13339;50.840;4.346;2024-03-25T14:06:33;15.50;99.90
25410;DHT22;13339;50.840;4.346;2024-03-25T14:08:59;15.70;99.90
25410;DHT22;13339;50.840;4.346;2024-03-25T14:11:25;15.60;99.90
25410;DHT22;13339;50.840;4.346;2024-03-25T14:13:51;15.60;99.90
25410;DHT22;13339;50.840;4.346;2024-03-25T14:16:18;15.70;99.90
25410;DHT22;13339;50.840;4.346;2024-03-25T14:18:44;15.60;99.90
25410;DHT22;13339;50.840;4.346;2024-03-25T14:21:10;15.50;99.90
25410;DHT22;13339;50.840;4.346;2024-03-25T14:23:36;15.50;99.90
25410;DHT22;13339;50.840;4.346;2024-03-25T14:26:03;15.50;99.90
25410;DHT22;13339;50.840;4.346;2024-03-25T14:28:28;15.50;99.90
25410;DHT22;13339;50.840;4.346;2024-03-25T14:30:54;15.40;99.90
25410;DHT22;13339;50.840;4.346;2024-03-25T14:33:20;15.60;99.90
25410;DHT22;13339;50.840;4.346;2024-03-25T14:35:46;15.70;99.90
25410;DHT22;13339;50.840;4.346;2024-03-25T14:38:13;15.70;99.90
25410;DHT22;13339;50.840;4.346;2024-03-25T14:40:39;15.90;99.90
25410;DHT22;13339;50.840;4.346;2024-03-25T14:43:06;16.10;99.90
25410;DHT22;13339;50.840;4.346;2024-03-25T14:45:32;16.20;99.90
25410;DHT22;13339;50.840;4.346;2024-03-25T14:47:58;16.00;99.90
25410;DHT22;13339;50.840;4.346;2024-03-25T14:50:24;15.90;99.90
25410;DHT22;13339;50.840;4.346;2024-03-25T14:52:49;16.00;99.90
25410;DHT22;13339;50.840;4.346;2024-03-25T14:55:15;16.00;99.90
25410;DHT22;13339;50.840;4.346;2024-03-25T14:57:40;16.10;99.90
25410;DHT22;13339;50.840;4.346;2024-03-25T15:00:06;16.00;99.90
25410;DHT22;13339;50.840;4.346;2024-03-25T15:02:33;15.90;99.90
25410;DHT22;13339;50.840;4.346;2024-03-25T15:05:03;15.80;99.90
25410;DHT22;13339;50.840;4.346;2024-03-25T15:07:30;15.70;99.90
25410;DHT22;13339;50.840;4.346;2024-03-25T15:09:56;15.60;99.90
25410;DHT22;13339;50.840;4.346;2024-03-25T15:12:22;15.60;99.90
25410;DHT22;13339;50.840;4.346;2024-03-25T15:14:49;15.60;99.90
25410;DHT22;13339;50.840;4.346;2024-03-25T15:17:15;15.60;99.90
25410;DHT22;13339;50.840;4.346;2024-03-25T15:19:40;15.50;99.90
25410;DHT22;13339;50.840;4.346;2024-03-25T15:22:06;15.60;99.90
25410;DHT22;13339;50.840;4.346;2024-03-25T15:24:32;15.50;99.90
25410;DHT22;13339;50.840;4.346;2024-03-25T15:26:57;15.40;99.90
25410;DHT22;13339;50.840;4.346;2024-03-25T15:29:23;15.40;99.90
25410;DHT22;13339;50.840;4.346;2024-03-25T15:31:48;15.30;99.90